Time;durP1;ratioP1;P1;durP2;ratioP2;P2;SDS_P1;SDS_P2;PMS_P1;PMS_P2;Temp;Humidity;BMP_temperature;BMP_pressure;BME280_temperature;BME280_humidity;BME280_pressure;Samples;Min_cycle;Max_cycle;Signal;HPM_P1;HPM_P2
2023/04/28 00:01:46;;;;;;;8.98;3.28;;;13.90;83.20;;;14.03;72.19;100703.72;5118321;29;20058;-86
2023/04/28 00:04:18;;;;;;;5.70;3.17;;;13.90;83.60;;;13.99;72.55;100696.66;5136788;28;20522;-86
2023/04/28 00:06:51;;;;;;;7.60;3.17;;;13.90;83.90;;;13.96;72.40;100683.50;5128333;28;20419;-87
2023/04/28 00:09:24;;;;;;;5.00;2.58;;;13.80;84.00;;;13.93;72.26;100691.28;5143677;28;20063;-85
2023/04/28 00:11:57;;;;;;;6.07;2.80;;;13.80;83.90;;;13.93;71.68;100691.28;5126834;28;20130;-85
2023/04/28 00:14:29;;;;;;;5.75;3.22;;;13.80;83.60;;;13.92;71.58;100676.44;5125613;29;20102;-86
2023/04/28 00:17:03;;;;;;;4.13;2.60;;;13.80;84.50;;;13.93;71.83;100686.03;5110071;28;20087;-87
2023/04/28 00:19:37;;;;;;;4.32;3.00;;;13.80;84.00;;;13.95;71.31;100679.09;5110076;29;20047;-87
2023/04/28 00:22:09;;;;;;;5.22;2.50;;;13.90;84.20;;;13.96;71.53;100680.88;5128388;28;20062;-86
2023/04/28 00:24:43;;;;;;;6.10;2.50;;;13.80;84.20;;;13.94;71.16;100677.31;5128344;29;20415;-85
2023/04/28 00:27:19;;;;;;;5.05;2.50;;;13.80;84.00;;;13.94;71.10;100677.31;5127394;29;20044;-85
2023/04/28 00:29:51;;;;;;;4.85;2.45;;;13.80;83.90;;;13.96;71.07;100673.03;5119642;29;20137;-85
2023/04/28 00:32:30;;;;;;;3.40;2.22;;;13.80;84.10;;;13.98;70.85;100669.56;5143757;28;20543;-87
2023/04/28 00:35:04;;;;;;;4.82;2.78;;;13.80;83.90;;;14.00;70.52;100677.44;5128313;29;20418;-86
2023/04/28 00:37:38;;;;;;;4.40;2.88;;;13.80;83.90;;;14.01;70.52;100669.59;5126938;28;20487;-86
2023/04/28 00:40:14;;;;;;;6.57;2.50;;;13.80;84.00;;;13.99;70.57;100660.84;5124271;28;20043;-86
2023/04/28 00:42:46;;;;;;;5.10;2.33;;;13.90;84.00;;;14.04;70.45;100653.97;5102234;29;20043;-86
2023/04/28 00:45:19;;;;;;;4.57;2.50;;;13.90;84.10;;;14.03;70.53;100651.31;5108800;29;20504;-86
2023/04/28 00:47:51;;;;;;;4.63;2.42;;;13.90;84.10;;;13.99;70.51;100644.25;5125218;29;20410;-87
2023/04/28 00:50:24;;;;;;;4.22;2.40;;;13.90;84.30;;;14.01;70.84;100645.13;5125158;28;20583;-88
2023/04/28 00:52:57;;;;;;;6.80;3.20;;;13.90;84.70;;;14.01;71.93;100634.66;5125527;28;20041;-87
2023/04/28 00:55:35;;;;;;;7.03;3.20;;;13.80;85.60;;;13.94;73.09;100630.16;5125831;29;20039;-87
2023/04/28 00:58:08;;;;;;;6.35;2.60;;;13.80;86.90;;;13.92;74.21;100638.00;5125464;29;20039;-86
2023/04/28 01:00:41;;;;;;;5.90;3.13;;;13.80;88.30;;;13.92;74.48;100634.50;5124555;29;20094;-86
2023/04/28 01:03:14;;;;;;;3.40;2.33;;;13.80;88.70;;;13.88;74.55;100636.16;5125133;29;20054;-86
2023/04/28 01:05:47;;;;;;;6.50;3.33;;;13.80;89.10;;;13.87;75.15;100629.16;5118708;29;20045;-85
2023/04/28 01:08:24;;;;;;;7.65;2.67;;;13.70;90.00;;;13.84;75.49;100619.53;5125814;28;20031;-86
2023/04/28 01:10:58;;;;;;;4.22;2.70;;;13.70;90.40;;;13.85;75.75;100620.41;5124356;29;20054;-85
2023/04/28 01:13:51;;;;;;;;;;;13.70;90.50;;;13.82;75.76;100616.00;5119879;29;20515;-84
2023/04/28 01:16:25;;;;;;;5.95;2.65;;;13.70;90.80;;;13.83;75.60;100612.53;5148707;28;19927;-86
2023/04/28 01:18:58;;;;;;;5.07;2.40;;;13.70;90.90;;;13.88;76.56;100614.31;5124539;28;20039;-86
2023/04/28 01:21:33;;;;;;;4.63;2.22;;;13.70;91.40;;;13.90;76.34;100628.34;5124168;28;20542;-85
2023/04/28 01:24:17;;;;;;;5.47;2.50;;;13.70;91.70;;;13.88;75.73;100620.44;5124680;29;20051;-85
2023/04/28 01:26:50;;;;;;;3.40;2.47;;;13.70;91.40;;;13.91;76.79;100619.63;5124732;29;20423;-85
2023/04/28 01:29:24;;;;;;;3.65;2.38;;;13.70;92.00;;;13.88;76.49;100616.94;5124198;29;20046;-86
2023/04/28 01:31:58;;;;;;;4.80;2.50;;;13.70;91.90;;;13.87;77.40;100617.81;5130263;28;20047;-87
2023/04/28 01:34:31;;;;;;;4.00;2.35;;;13.70;92.50;;;13.85;78.93;100623.03;5108486;29;20090;-85
2023/04/28 01:37:03;;;;;;;3.55;2.20;;;13.70;93.30;;;13.83;79.40;100628.25;5124971;28;20119;-85
2023/04/28 01:39:36;;;;;;;4.30;2.38;;;13.70;93.90;;;13.79;79.91;100618.53;5123811;29;20042;-86
2023/04/28 01:42:09;;;;;;;6.45;2.97;;;13.70;94.40;;;13.74;80.20;100614.94;5123224;29;20469;-85
2023/04/28 01:44:42;;;;;;;3.78;2.30;;;13.60;94.80;;;13.72;81.32;100610.53;5107099;29;20582;-86
2023/04/28 01:47:16;;;;;;;;;;;13.60;95.60;;;13.70;83.45;100613.16;5123474;29;20039;-85
2023/04/28 01:49:52;;;;;;;3.60;2.25;;;13.50;97.00;;;13.68;82.71;100612.22;5123178;29;19926;-85
2023/04/28 01:52:26;;;;;;;4.47;2.50;;;13.50;97.20;;;13.70;83.31;100614.88;5106995;29;20050;-86
2023/04/28 01:55:00;;;;;;;6.03;2.75;;;13.50;97.80;;;13.63;82.34;100606.03;5123172;29;20059;-84
2023/04/28 01:57:34;;;;;;;3.35;2.20;;;13.50;97.50;;;13.59;82.84;100601.56;5107573;29;20141;-85
2023/04/28 02:00:09;;;;;;;6.82;2.65;;;13.40;97.80;;;13.56;83.06;100602.41;5123437;29;20487;-85
2023/04/28 02:02:43;;;;;;;5.75;2.60;;;13.40;98.20;;;13.51;83.49;100606.66;5124452;28;20328;-86
2023/04/28 02:05:17;;;;;;;5.55;2.78;;;13.40;98.40;;;13.49;84.07;100600.50;5124765;28;20507;-86
2023/04/28 02:07:49;;;;;;;3.15;2.45;;;13.40;98.80;;;13.50;83.82;100601.41;5087860;29;20135;-84
2023/04/28 02:10:23;;;;;;;3.88;2.67;;;13.40;99.00;;;13.54;85.72;100611.06;5091328;29;20055;-86
2023/04/28 02:12:56;;;;;;;3.58;2.17;;;13.40;99.90;;;13.54;87.08;100614.56;5123108;29;20151;-85
2023/04/28 02:15:29;;;;;;;2.97;2.20;;;13.40;99.90;;;13.54;86.61;100614.56;5125824;28;20146;-87
2023/04/28 02:18:02;;;;;;;3.10;2.40;;;13.30;99.90;;;13.53;86.22;100618.03;5124052;28;20035;-85
2023/04/28 02:20:36;;;;;;;3.30;2.10;;;13.40;99.90;;;13.52;85.08;100615.41;5122517;29;20232;-87
2023/04/28 02:23:09;;;;;;;3.38;2.38;;;13.30;99.90;;;13.52;85.75;100604.91;5107724;29;20133;-86
2023/04/28 02:25:44;;;;;;;2.78;2.13;;;13.40;99.90;;;13.51;85.38;100608.41;5123237;29;20039;-86
2023/04/28 02:28:23;;;;;;;6.88;3.00;;;13.30;99.90;;;13.47;85.38;100596.09;5155268;28;20043;-85
2023/04/28 02:31:04;;;;;;;4.43;2.17;;;13.30;99.90;;;13.44;85.79;100596.91;5091922;29;20403;-86
2023/04/28 02:33:38;;;;;;;5.03;2.70;;;13.30;99.90;;;13.47;86.11;100611.78;5123065;29;20036;-86
2023/04/28 02:36:12;;;;;;;5.45;2.40;;;13.30;99.90;;;13.45;85.81;100608.28;5107320;29;20416;-86
2023/04/28 02:38:47;;;;;;;4.22;2.90;;;13.30;99.90;;;13.42;86.23;100592.50;5099810;29;20078;-86
2023/04/28 02:41:21;;;;;;;6.80;2.80;;;13.20;99.90;;;13.34;86.06;100594.06;5133937;28;20047;-86
2023/04/28 02:43:54;;;;;;;7.43;3.08;;;13.20;99.90;;;13.28;86.63;100590.47;5123274;28;20035;-86
2023/04/28 02:46:28;;;;;;;5.18;2.75;;;13.20;99.90;;;13.25;86.99;100590.44;5122975;28;20057;-86
2023/04/28 02:49:01;;;;;;;4.22;2.72;;;13.10;99.90;;;13.23;87.08;100594.72;5122346;29;20043;-86
2023/04/28 02:51:35;;;;;;;5.60;2.90;;;13.10;99.90;;;13.25;87.71;100593.03;5114238;29;20043;-85
2023/04/28 02:54:10;;;;;;;3.00;2.20;;;13.10;99.90;;;13.27;88.49;100598.31;5106927;29;20121;-84
2023/04/28 02:56:46;;;;;;;4.10;2.10;;;13.10;99.90;;;13.28;87.83;100600.94;5122459;29;20419;-86
2023/04/28 02:59:19;;;;;;;3.90;2.13;;;13.10;99.90;;;13.28;87.64;100595.72;5142229;28;20039;-85
2023/04/28 03:01:52;;;;;;;4.18;2.45;;;13.10;99.90;;;13.28;87.64;100590.47;5106493;29;20036;-86
2023/04/28 03:04:26;;;;;;;5.97;2.80;;;13.10;99.90;;;13.22;87.82;100587.72;5122469;28;20102;-86
2023/04/28 03:06:59;;;;;;;3.92;2.70;;;13.10;99.90;;;13.21;88.53;100578.13;5122782;29;20039;-85
2023/04/28 03:09:31;;;;;;;6.15;2.80;;;13.10;99.90;;;13.21;89.26;100574.63;5146125;28;20043;-87
2023/04/28 03:12:13;;;;;;;6.00;2.50;;;13.10;99.90;;;13.19;89.55;100576.28;5122178;28;20046;-86
2023/04/28 03:14:45;;;;;;;4.50;2.75;;;13.00;99.90;;;13.15;89.22;100577.94;5106762;29;20039;-87
2023/04/28 03:17:21;;;;;;;4.07;2.40;;;13.00;99.90;;;13.12;89.81;100583.13;5106635;29;20043;-85
2023/04/28 03:19:54;;;;;;;5.65;2.75;;;13.00;99.90;;;13.08;90.66;100578.69;5122368;29;20043;-85
2023/04/28 03:22:26;;;;;;;3.95;2.53;;;13.00;99.90;;;13.04;90.85;100567.28;5105962;29;20055;-86
2023/04/28 03:24:59;;;;;;;4.68;2.67;;;13.00;99.90;;;12.96;90.77;100550.50;5106784;29;20098;-87
2023/04/28 03:27:35;;;;;;;6.40;3.35;;;12.90;99.90;;;12.98;90.84;100550.56;5122374;29;20055;-85
2023/04/28 03:30:11;;;;;;;4.40;3.00;;;12.90;99.90;;;12.96;91.05;100549.63;5122546;28;20102;-86
2023/04/28 03:32:44;;;;;;;4.40;2.60;;;12.90;99.90;;;12.98;91.21;100558.41;5123112;28;20239;-86
2023/04/28 03:35:18;;;;;;;5.18;2.97;;;12.90;99.90;;;13.01;91.32;100555.84;5122502;29;20054;-86
2023/04/28 03:37:52;;;;;;;4.38;2.22;;;12.90;99.90;;;13.03;92.03;100554.13;5122605;29;20126;-86
2023/04/28 03:40:30;;;;;;;4.00;2.47;;;12.90;99.90;;;13.06;93.36;100550.72;5106711;29;20051;-86
2023/04/28 03:43:27;;;;;;;5.22;2.53;;;12.90;99.90;;;12.97;92.89;100551.38;5113434;29;20062;-85
2023/04/28 03:46:13;;;;;;;5.22;2.40;;;12.90;99.90;;;12.92;94.06;100547.81;5108926;29;20499;-87
2023/04/28 03:48:47;;;;;;;4.10;2.60;;;12.90;99.90;;;12.90;95.93;100546.88;5130549;28;20532;-88
2023/04/28 03:51:20;;;;;;;4.68;2.88;;;12.80;99.90;;;12.85;97.29;100535.47;5107442;29;20055;-87
2023/04/28 03:53:54;;;;;;;4.15;2.65;;;12.80;99.90;;;12.85;98.82;100535.47;5104475;29;20615;-87
2023/04/28 03:56:27;;;;;;;6.00;2.97;;;12.70;99.90;;;12.83;100.00;100526.69;5125496;28;20422;-88
2023/04/28 03:59:04;;;;;;;4.80;3.35;;;12.70;99.90;;;12.73;100.00;100521.25;5122875;29;20043;-87
2023/04/28 04:01:36;;;;;;;5.35;3.67;;;12.60;99.90;;;12.53;100.00;100513.84;5122672;29;20074;-87
2023/04/28 04:04:10;;;;;;;7.82;3.80;;;12.50;99.90;;;12.41;100.00;100502.25;5122415;29;20048;-88
2023/04/28 04:06:43;;;;;;;10.25;4.35;;;12.40;99.90;;;12.32;100.00;100512.47;5107553;29;20059;-88
2023/04/28 04:09:17;;;;;;;10.45;4.53;;;12.30;99.90;;;12.20;100.00;100507.88;5111957;29;20055;-87
2023/04/28 04:11:49;;;;;;;7.32;4.15;;;12.20;99.90;;;12.03;100.00;100496.13;5115505;29;20513;-87
2023/04/28 04:14:24;;;;;;;6.80;4.13;;;12.10;99.90;;;11.98;100.00;100491.63;5123061;28;20142;-88
2023/04/28 04:16:57;;;;;;;8.45;4.68;;;12.00;99.90;;;11.91;100.00;100480.16;5145093;23;20046;-68
2023/04/28 04:19:30;;;;;;;10.73;4.10;;;11.90;99.90;;;11.85;100.00;100474.78;5161424;28;20049;-67
2023/04/28 04:22:02;;;;;;;8.07;4.30;;;11.90;99.90;;;11.78;100.00;100475.44;5166558;28;20060;-67
2023/04/28 04:24:34;;;;;;;7.95;4.00;;;11.80;99.90;;;11.73;100.00;100471.81;5172497;28;20046;-67
2023/04/28 04:27:08;;;;;;;7.93;4.63;;;11.80;99.90;;;11.71;100.00;100465.69;5168700;28;20039;-68
2023/04/28 04:29:45;;;;;;;8.00;4.40;;;11.70;99.90;;;11.69;100.00;100458.69;5155810;28;20121;-69
2023/04/28 04:32:19;;;;;;;9.80;4.82;;;11.70;99.90;;;11.64;100.00;100462.91;5164042;28;20408;-70
2023/04/28 04:34:51;;;;;;;10.13;4.47;;;11.70;99.90;;;11.64;100.00;100467.25;5164130;28;20495;-67
2023/04/28 04:37:23;;;;;;;7.20;4.40;;;11.70;99.90;;;11.67;100.00;100481.28;5164059;28;20481;-67
2023/04/28 04:40:04;;;;;;;9.30;4.57;;;11.70;99.90;;;11.67;100.00;100478.69;5144486;28;20043;-69
2023/04/28 04:42:42;;;;;;;8.75;4.63;;;11.70;99.90;;;11.67;100.00;100477.75;5152704;28;20419;-70
2023/04/28 04:45:20;;;;;;;10.20;4.07;;;11.70;99.90;;;11.57;100.00;100484.50;5160809;28;20056;-70
2023/04/28 04:47:54;;;;;;;8.48;4.40;;;11.70;99.90;;;11.56;100.00;100490.56;5156060;28;20038;-67
2023/04/28 04:50:27;;;;;;;6.38;4.15;;;11.60;99.90;;;11.57;100.00;100487.09;5160857;28;20046;-68
2023/04/28 04:52:59;;;;;;;8.93;3.80;;;11.60;99.90;;;11.55;100.00;100483.59;5164264;28;20429;-68
2023/04/28 04:55:32;;;;;;;8.18;4.32;;;11.60;99.90;;;11.57;100.00;100492.31;5161289;28;20543;-67
2023/04/28 04:58:04;;;;;;;6.13;3.67;;;11.60;99.90;;;11.65;100.00;100506.44;5159892;28;20050;-68
2023/04/28 05:00:54;;;;;;;9.50;4.22;;;11.60;99.90;;;11.65;100.00;100513.41;5156245;28;20041;-70
2023/04/28 05:03:27;;;;;;;7.03;3.97;;;11.70;99.90;;;11.66;100.00;100507.34;5156919;28;20050;-69
2023/04/28 05:06:00;;;;;;;8.73;4.03;;;11.70;99.90;;;11.71;100.00;100508.34;5163967;28;20053;-70
2023/04/28 05:08:46;;;;;;;6.80;3.60;;;11.70;99.90;;;11.74;100.00;100511.03;5171580;28;20467;-69
2023/04/28 05:11:18;;;;;;;6.45;3.70;;;11.70;99.90;;;11.81;100.00;100517.34;5159597;28;20503;-69
2023/04/28 05:13:51;;;;;;;5.63;3.40;;;11.80;99.90;;;11.87;100.00;100512.28;5156384;28;20065;-69
2023/04/28 05:16:25;;;;;;;8.55;4.07;;;11.80;99.90;;;11.85;100.00;100509.59;5163214;28;20097;-69
2023/04/28 05:19:13;;;;;;;7.38;4.50;;;11.80;99.90;;;11.84;100.00;100506.97;5160058;28;20125;-69
2023/04/28 05:21:47;;;;;;;6.32;4.00;;;11.80;99.90;;;11.84;100.00;100506.97;5163285;28;20050;-69
2023/04/28 05:24:22;;;;;;;9.68;4.47;;;11.80;99.90;;;11.82;100.00;100519.09;5164965;28;20556;-68
2023/04/28 05:26:56;;;;;;;5.32;3.60;;;11.80;99.90;;;11.82;100.00;100508.66;5155649;28;20094;-70
2023/04/28 05:29:28;;;;;;;8.45;4.68;;;11.80;99.90;;;11.81;100.00;100502.56;5162342;28;20058;-68
2023/04/28 05:32:01;;;;;;;5.88;4.05;;;11.80;99.90;;;11.82;100.00;100508.66;5156821;28;20085;-70
2023/04/28 05:34:33;;;;;;;6.53;4.00;;;11.80;99.90;;;11.84;100.00;100513.06;5163242;28;20113;-67
2023/04/28 05:37:05;;;;;;;6.80;3.80;;;11.80;99.90;;;11.88;100.00;100499.25;5155740;28;20042;-69
2023/04/28 05:39:39;;;;;;;8.95;4.18;;;11.80;99.90;;;11.90;100.00;100494.06;5163072;28;20046;-67
2023/04/28 05:42:11;;;;;;;6.90;3.63;;;11.90;99.90;;;11.94;100.00;100488.06;5156535;28;20042;-69
2023/04/28 05:44:45;;;;;;;10.02;4.40;;;11.90;99.90;;;11.91;100.00;100482.75;5162985;28;20031;-68
2023/04/28 05:47:19;;;;;;;7.60;4.25;;;11.90;99.90;;;11.90;100.00;100491.44;5163443;28;20504;-68
2023/04/28 05:49:51;;;;;;;7.43;4.15;;;11.90;99.90;;;11.87;100.00;100491.38;5154740;28;20052;-67
2023/04/28 05:52:24;;;;;;;8.38;4.55;;;11.80;99.90;;;11.82;100.00;100483.44;5162942;28;20511;-68
2023/04/28 05:54:56;;;;;;;8.55;4.40;;;11.80;99.90;;;11.78;100.00;100476.31;5158812;28;20515;-69
2023/04/28 05:57:28;;;;;;;7.68;3.58;;;11.80;99.90;;;11.67;100.00;100468.22;5161016;28;20418;-68
2023/04/28 06:00:01;;;;;;;7.45;4.20;;;11.70;99.90;;;11.64;100.00;100467.25;5162820;28;20042;-69
2023/04/28 06:02:34;;;;;;;7.00;4.57;;;11.70;99.90;;;11.65;100.00;100469.91;5144821;28;20134;-67
2023/04/28 06:05:10;;;;;;;8.77;4.97;;;11.70;99.90;;;11.65;100.00;100469.03;5142459;28;20039;-56
2023/04/28 06:07:42;;;;;;;6.30;3.63;;;11.70;99.90;;;11.65;100.00;100464.69;5158142;28;20282;-57
2023/04/28 06:10:14;;;;;;;8.18;4.68;;;11.70;99.90;;;11.71;100.00;100457.84;5142016;28;20045;-59
2023/04/28 06:12:47;;;;;;;6.82;3.90;;;11.70;99.90;;;11.75;100.00;100459.69;5141801;28;20046;-57
2023/04/28 06:15:21;;;;;;;9.43;4.60;;;11.70;99.90;;;11.78;100.00;100464.97;5142154;28;20050;-61
2023/04/28 06:17:54;;;;;;;9.07;4.57;;;11.80;99.90;;;11.81;100.00;100470.34;5157870;28;20129;-60
2023/04/28 06:20:26;;;;;;;8.25;4.43;;;11.80;99.90;;;11.78;100.00;100460.66;5141559;28;20388;-57
2023/04/28 06:23:00;;;;;;;8.10;4.50;;;11.80;99.90;;;11.77;100.00;100452.78;5142028;28;20043;-59
2023/04/28 06:25:32;;;;;;;12.27;4.85;;;11.80;99.90;;;11.73;100.00;100454.41;5141363;28;20065;-59
2023/04/28 06:28:05;;;;;;;9.25;4.63;;;11.70;99.90;;;11.74;100.00;100455.34;5158695;28;20052;-58
2023/04/28 06:30:37;;;;;;;9.88;5.10;;;11.70;99.90;;;11.81;100.00;100466.00;5143742;28;20519;-58
2023/04/28 06:33:10;;;;;;;8.48;4.47;;;11.80;99.90;;;11.86;100.00;100471.31;5143613;28;20473;-59
2023/04/28 06:35:44;;;;;;;7.63;4.18;;;11.80;99.90;;;11.92;100.00;100459.28;5151721;28;20054;-58
2023/04/28 06:38:17;;;;;;;8.23;4.78;;;11.90;99.90;;;11.96;100.00;100460.25;5152752;28;20489;-58
2023/04/28 06:40:49;;;;;;;8.23;4.70;;;11.90;99.90;;;11.92;100.00;100468.84;5151297;28;20043;-59
2023/04/28 06:43:21;;;;;;;7.03;4.53;;;11.90;99.90;;;11.89;100.00;100476.63;5141613;28;20113;-56
2023/04/28 06:46:09;;;;;;;9.68;4.65;;;11.90;99.90;;;11.92;100.00;100466.22;5147992;28;20035;-57
2023/04/28 06:48:43;;;;;;;7.53;4.50;;;11.90;99.90;;;11.96;100.00;100465.47;5142788;28;20503;-55
2023/04/28 06:51:15;;;;;;;6.53;4.28;;;11.90;99.90;;;12.01;100.00;100461.25;5142316;28;20043;-59
2023/04/28 06:53:50;;;;;;;7.85;4.32;;;12.00;99.90;;;12.12;100.00;100457.13;5150382;28;20130;-56
2023/04/28 06:56:22;;;;;;;6.10;3.72;;;12.00;99.90;;;12.22;100.00;100464.34;5142755;28;20054;-59
2023/04/28 06:58:55;;;;;;;5.88;3.35;;;12.10;99.90;;;12.37;100.00;100468.16;5141123;28;20400;-59
2023/04/28 07:01:27;;;;;;;8.13;3.88;;;12.20;99.90;;;12.44;100.00;100475.28;5142363;28;20049;-57
2023/04/28 07:04:01;;;;;;;8.45;4.47;;;12.30;99.90;;;12.52;100.00;100467.59;5154615;28;20046;-57
2023/04/28 07:06:33;;;;;;;8.15;4.38;;;12.40;99.90;;;12.56;100.00;100475.53;5146520;28;20439;-56
2023/04/28 07:09:05;;;;;;;9.18;4.57;;;12.40;99.90;;;12.64;100.00;100467.88;5148714;28;20050;-57
2023/04/28 07:11:37;;;;;;;6.72;4.10;;;12.50;99.90;;;12.69;100.00;100472.34;5142917;28;20035;-57
2023/04/28 07:14:09;;;;;;;8.80;4.70;;;12.60;99.90;;;12.67;100.00;100476.66;5143312;28;20047;-57
2023/04/28 07:16:41;;;;;;;10.63;4.80;;;12.60;99.90;;;12.66;100.00;100477.53;5143420;28;20473;-59
2023/04/28 07:19:15;;;;;;;6.35;2.80;;;12.60;99.90;;;12.98;100.00;100474.69;5154279;28;20042;-61
2023/04/28 07:21:47;;;;;;;7.93;4.65;;;12.90;99.90;;;13.20;100.00;100482.13;5143545;28;20096;-58
2023/04/28 07:24:19;;;;;;;7.65;3.33;;;13.10;99.90;;;13.24;100.00;100483.97;5142783;28;20381;-56
2023/04/28 07:26:51;;;;;;;6.95;4.07;;;13.10;99.90;;;13.28;100.00;100480.53;5142232;28;20049;-58
2023/04/28 07:29:23;;;;;;;8.05;4.00;;;13.20;99.90;;;13.32;100.00;100485.84;5149729;28;20054;-58
2023/04/28 07:31:55;;;;;;;7.60;4.43;;;13.20;99.90;;;13.30;100.00;100483.16;5150218;28;20512;-60
2023/04/28 07:34:29;;;;;;;9.43;4.35;;;13.20;99.90;;;13.28;100.00;100480.53;5142145;28;20055;-61
2023/04/28 07:37:02;;;;;;;8.05;4.55;;;13.20;99.90;;;13.26;100.00;100477.00;5146557;28;20126;-57
2023/04/28 07:39:34;;;;;;;7.15;3.88;;;13.20;99.90;;;13.27;100.00;100484.00;5148923;28;20133;-57
2023/04/28 07:42:06;;;;;;;8.90;4.22;;;13.20;99.90;;;13.27;100.00;100489.25;5141772;28;20046;-56
2023/04/28 07:44:39;;;;;;;8.30;4.82;;;13.20;99.90;;;13.20;100.00;100481.22;5140111;28;20058;-57
2023/04/28 07:47:11;;;;;;;7.80;4.20;;;13.10;99.90;;;13.22;100.00;100475.19;5143006;28;20454;-56
2023/04/28 07:49:44;;;;;;;7.95;4.63;;;13.10;99.90;;;13.33;100.00;100477.13;5152547;28;20054;-56
2023/04/28 07:52:16;;;;;;;6.97;4.28;;;13.20;99.90;;;13.42;100.00;100482.53;5148995;28;20499;-59
2023/04/28 07:54:48;;;;;;;6.93;4.43;;;13.20;99.90;;;13.54;100.00;100467.91;5148043;28;20526;-57
2023/04/28 07:57:20;;;;;;;7.97;4.20;;;13.30;99.90;;;13.62;100.00;100475.03;5144685;28;20054;-59
2023/04/28 07:59:53;;;;;;;7.88;4.60;;;13.40;99.90;;;13.75;100.00;100483.09;5144439;28;20049;-60
2023/04/28 08:02:26;;;;;;;7.70;4.20;;;13.50;99.90;;;13.82;100.00;100478.84;5147197;28;20051;-59
2023/04/28 08:04:59;;;;;;;7.40;3.97;;;13.60;99.90;;;13.95;100.00;100480.81;5147061;28;20114;-57
2023/04/28 08:07:31;;;;;;;8.13;3.90;;;13.70;99.90;;;14.06;100.00;100473.13;5148278;28;20459;-57
2023/04/28 08:10:03;;;;;;;5.57;3.60;;;13.80;99.90;;;14.15;100.00;100483.78;5144843;28;20043;-59
2023/04/28 08:12:35;;;;;;;6.55;3.95;;;13.80;99.90;;;14.19;100.00;100479.44;5149119;28;20051;-58
2023/04/28 08:15:09;;;;;;;8.27;4.53;;;13.90;99.90;;;14.23;100.00;100482.16;5144647;28;20047;-58
2023/04/28 08:17:41;;;;;;;7.50;4.45;;;14.00;99.90;;;14.35;100.00;100476.22;5111695;28;1088617;-58
2023/04/28 08:20:18;;;;;;;8.43;4.35;;;14.00;99.90;;;14.66;100.00;100467.91;5152272;28;20249;-59
2023/04/28 08:22:50;;;;;;;9.48;5.07;;;14.20;99.90;;;15.20;100.00;100460.69;5154013;28;20054;-60
2023/04/28 08:25:22;;;;;;;7.22;4.25;;;14.50;99.90;;;16.34;100.00;100468.69;5148292;28;20043;-58
2023/04/28 08:27:55;;;;;;;7.38;3.65;;;15.20;99.90;;;17.86;100.00;100480.63;5145668;28;20069;-56
2023/04/28 08:30:27;;;;;;;6.72;3.72;;;16.10;99.90;;;18.08;95.86;100478.88;5145188;28;20042;-58
2023/04/28 08:32:59;;;;;;;7.20;3.83;;;16.50;99.90;;;17.76;94.58;100484.16;5145983;28;20039;-58
2023/04/28 08:35:32;;;;;;;7.40;3.55;;;16.70;99.90;;;17.67;96.71;100477.09;5154819;28;20057;-56
2023/04/28 08:38:05;;;;;;;8.90;3.55;;;16.70;99.90;;;17.59;97.62;100482.34;5145932;28;20487;-59
2023/04/28 08:40:38;;;;;;;8.32;3.35;;;16.80;99.90;;;17.49;97.60;100480.59;5144675;28;20455;-58
2023/04/28 08:43:10;;;;;;;5.32;2.92;;;16.80;99.90;;;17.29;98.04;100482.31;5144931;28;20392;-58
2023/04/28 08:45:44;;;;;;;6.25;3.75;;;16.70;99.90;;;17.00;99.46;100479.56;5148983;28;20606;-56
2023/04/28 08:48:20;;;;;;;5.82;3.55;;;16.50;99.90;;;16.83;100.00;100479.53;5150609;28;20041;-57
2023/04/28 08:50:54;;;;;;;7.28;3.63;;;16.40;99.90;;;16.69;100.00;100481.16;5154755;28;20080;-56
2023/04/28 08:53:27;;;;;;;6.82;3.90;;;16.20;99.90;;;16.52;100.00;100484.59;5156170;28;20058;-57
2023/04/28 08:56:00;;;;;;;6.40;3.38;;;16.20;99.90;;;16.42;100.00;100477.50;5144464;28;20086;-59
2023/04/28 08:58:35;;;;;;;7.32;4.10;;;16.10;99.90;;;16.36;100.00;100482.72;5141748;28;20050;-57
2023/04/28 09:01:08;;;;;;;5.95;3.05;;;16.00;99.90;;;16.35;100.00;100488.84;5148172;28;20044;-59
2023/04/28 09:03:40;;;;;;;5.50;2.85;;;16.00;99.90;;;16.34;100.00;100492.34;5156175;28;20081;-57
2023/04/28 09:06:14;;;;;;;5.88;3.42;;;15.90;99.90;;;16.22;100.00;100494.91;5158751;28;20054;-58
2023/04/28 09:08:46;;;;;;;6.97;3.40;;;15.90;99.90;;;16.14;100.00;100491.34;5153938;28;20495;-57
2023/04/28 09:11:19;;;;;;;6.50;3.47;;;15.80;99.90;;;16.04;100.00;100490.41;5159303;28;20049;-57
2023/04/28 09:13:51;;;;;;;7.03;4.22;;;15.70;99.90;;;15.96;100.00;100497.31;5160185;28;20053;-59
2023/04/28 09:16:40;;;;;;;6.40;3.95;;;15.70;99.90;;;15.81;100.00;100494.59;5155409;28;20495;-60
2023/04/28 09:19:12;;;;;;;5.72;3.60;;;15.60;99.90;;;15.71;100.00;100488.34;5158335;28;20488;-58
2023/04/28 09:21:52;;;;;;;7.15;3.72;;;15.50;99.90;;;15.58;100.00;100483.81;5151687;28;20423;-57
2023/04/28 09:24:32;;;;;;;6.32;3.78;;;15.40;99.90;;;15.45;100.00;100488.97;5157920;28;20256;-58
2023/04/28 09:27:06;;;;;;;9.63;4.90;;;15.30;99.90;;;15.37;100.00;100493.25;5158858;28;20043;-60
2023/04/28 09:29:39;;;;;;;9.95;4.63;;;15.20;99.90;;;15.25;100.00;100485.22;5144991;28;20050;-59
2023/04/28 09:32:16;;;;;;;6.82;4.40;;;15.10;99.90;;;15.07;100.00;100487.69;5150705;28;20043;-56
2023/04/28 09:34:51;;;;;;;8.00;3.83;;;15.00;99.90;;;15.00;100.00;100485.84;5151808;28;20411;-57
2023/04/28 09:37:29;;;;;;;6.43;3.60;;;14.90;99.90;;;14.95;100.00;100477.03;5150853;28;20096;-59
2023/04/28 09:40:07;;;;;;;8.23;4.28;;;14.80;99.90;;;14.92;100.00;100480.47;5147251;28;20051;-57
2023/04/28 09:42:41;;;;;;;9.93;4.68;;;14.80;99.90;;;14.91;100.00;100474.34;5153414;28;20109;-59
2023/04/28 09:45:15;;;;;;;6.10;3.63;;;14.80;99.90;;;14.92;100.00;100470.84;5156071;28;20042;-56
2023/04/28 09:47:47;;;;;;;10.15;4.70;;;14.70;99.90;;;14.93;100.00;100467.41;5155447;28;20579;-59
2023/04/28 09:50:19;;;;;;;5.97;2.70;;;14.80;99.90;;;14.97;100.00;100484.03;5157290;28;20400;-57
2023/04/28 09:52:58;;;;;;;7.60;4.28;;;14.70;99.90;;;15.07;100.00;100485.06;5143784;28;20050;-58
2023/04/28 09:55:32;;;;;;;12.13;4.22;;;14.90;99.90;;;15.15;100.00;100484.25;5143602;28;20430;-58
2023/04/28 09:58:07;;;;;;;8.20;4.10;;;14.90;99.90;;;15.15;100.00;100484.25;5155617;28;20093;-59
2023/04/28 10:00:40;;;;;;;;;;;15.00;99.90;;;15.13;100.00;100479.88;5147890;28;20046;-57
2023/04/28 10:03:14;;;;;;;7.63;3.67;;;14.90;99.90;;;15.07;100.00;100485.94;5155433;28;19925;-56
2023/04/28 10:05:47;;;;;;;5.50;3.42;;;14.90;99.90;;;15.06;100.00;100472.75;5147356;28;20078;-56
2023/04/28 10:08:21;;;;;;;6.85;3.80;;;14.90;99.90;;;15.04;100.00;100477.13;5149401;28;20107;-57
2023/04/28 10:10:54;;;;;;;6.80;3.85;;;14.80;99.90;;;15.07;100.00;100471.94;5153278;28;20054;-57
2023/04/28 10:13:26;;;;;;;6.43;3.65;;;14.80;99.90;;;15.09;100.00;100478.06;5148623;28;20043;-59
2023/04/28 10:15:58;;;;;;;6.05;3.75;;;14.80;99.90;;;15.10;100.00;100474.56;5154001;28;20112;-57
2023/04/28 10:18:31;;;;;;;6.82;4.22;;;14.90;99.90;;;15.12;100.00;100467.59;5174618;23;20057;-84
2023/04/28 10:21:06;;;;;;;5.30;3.47;;;14.90;99.90;;;15.13;100.00;100470.25;5159335;28;20050;-85
2023/04/28 10:24:10;;;;;;;9.52;4.57;;;14.90;99.90;;;15.14;100.00;100472.00;5174732;28;20408;-83
2023/04/28 10:27:08;;;;;;;7.35;4.35;;;14.90;99.90;;;15.16;100.00;100469.38;5154897;28;20051;-85
2023/04/28 10:29:40;;;;;;;6.05;3.88;;;14.90;99.90;;;15.24;100.00;100472.97;5157321;28;20101;-84
2023/04/28 10:32:20;;;;;;;6.80;4.28;;;15.00;99.90;;;15.29;100.00;100476.53;5152918;28;20066;-84
2023/04/28 10:34:53;;;;;;;7.70;3.60;;;15.00;99.90;;;15.36;100.00;100478.34;5151018;28;20463;-83
2023/04/28 10:38:03;;;;;;;7.72;4.10;;;15.00;99.90;;;15.38;100.00;100474.00;5149925;28;20043;-84